sensor_id;sensor_type;location;lat;lon;timestamp;temperature;humidity
72128;DHT22;60000;51.030;7.024;2023-12-29T00:00:33;10.37;72.87
72128;DHT22;60000;51.030;7.024;2023-12-29T00:02:58;10.34;72.97
72128;DHT22;60000;51.030;7.024;2023-12-29T00:05:23;10.34;73.00
72128;DHT22;60000;51.030;7.024;2023-12-29T00:07:49;10.36;73.03
72128;DHT22;60000;51.030;7.024;2023-12-29T00:10:14;10.34;73.17
72128;DHT22;60000;51.030;7.024;2023-12-29T00:12:39;10.36;73.28
72128;DHT22;60000;51.030;7.024;2023-12-29T00:15:05;10.33;73.32
72128;DHT22;60000;51.030;7.024;2023-12-29T00:17:30;10.31;73.37
72128;DHT22;60000;51.030;7.024;2023-12-29T00:19:57;10.33;73.42
72128;DHT22;60000;51.030;7.024;2023-12-29T00:22:23;10.33;73.45
72128;DHT22;60000;51.030;7.024;2023-12-29T00:24:50;10.33;73.41
72128;DHT22;60000;51.030;7.024;2023-12-29T00:27:15;10.36;73.44
72128;DHT22;60000;51.030;7.024;2023-12-29T00:29:41;10.31;73.36
72128;DHT22;60000;51.030;7.024;2023-12-29T00:32:07;10.33;73.34
72128;DHT22;60000;51.030;7.024;2023-12-29T00:34:32;10.37;73.29
72128;DHT22;60000;51.030;7.024;2023-12-29T00:36:57;10.38;73.29
72128;DHT22;60000;51.030;7.024;2023-12-29T00:39:23;10.41;73.12
72128;DHT22;60000;51.030;7.024;2023-12-29T00:41:56;10.41;73.01
72128;DHT22;60000;51.030;7.024;2023-12-29T00:44:23;10.40;72.98
72128;DHT22;60000;51.030;7.024;2023-12-29T00:46:48;10.41;72.97
72128;DHT22;60000;51.030;7.024;2023-12-29T00:49:14;10.38;73.02
72128;DHT22;60000;51.030;7.024;2023-12-29T00:51:39;10.38;73.03
72128;DHT22;60000;51.030;7.024;2023-12-29T00:54:06;10.34;73.08
72128;DHT22;60000;51.030;7.024;2023-12-29T00:56:31;10.34;73.18
72128;DHT22;60000;51.030;7.024;2023-12-29T00:58:57;10.33;73.21
72128;DHT22;60000;51.030;7.024;2023-12-29T01:01:22;10.34;73.28
72128;DHT22;60000;51.030;7.024;2023-12-29T01:03:47;10.34;73.27
72128;DHT22;60000;51.030;7.024;2023-12-29T01:06:13;10.34;73.30
72128;DHT22;60000;51.030;7.024;2023-12-29T01:08:38;10.31;73.38
72128;DHT22;60000;51.030;7.024;2023-12-29T01:11:03;10.31;73.43
72128;DHT22;60000;51.030;7.024;2023-12-29T01:13:28;10.31;73.57
72128;DHT22;60000;51.030;7.024;2023-12-29T01:15:54;10.33;73.46
72128;DHT22;60000;51.030;7.024;2023-12-29T01:18:19;10.36;73.30
72128;DHT22;60000;51.030;7.024;2023-12-29T01:20:44;10.40;73.12
72128;DHT22;60000;51.030;7.024;2023-12-29T01:23:10;10.49;72.67
72128;DHT22;60000;51.030;7.024;2023-12-29T01:25:35;10.55;72.25
72128;DHT22;60000;51.030;7.024;2023-12-29T01:28:00;10.61;72.14
72128;DHT22;60000;51.030;7.024;2023-12-29T01:30:26;10.65;71.76
72128;DHT22;60000;51.030;7.024;2023-12-29T01:32:51;10.68;71.77
72128;DHT22;60000;51.030;7.024;2023-12-29T01:35:16;10.68;71.72
72128;DHT22;60000;51.030;7.024;2023-12-29T01:37:42;10.69;71.65
72128;DHT22;60000;51.030;7.024;2023-12-29T01:40:08;10.71;71.59
72128;DHT22;60000;51.030;7.024;2023-12-29T01:42:33;10.69;71.62
72128;DHT22;60000;51.030;7.024;2023-12-29T01:44:59;10.68;71.73
72128;DHT22;60000;51.030;7.024;2023-12-29T01:47:24;10.71;71.79
72128;DHT22;60000;51.030;7.024;2023-12-29T01:49:50;10.68;71.74
72128;DHT22;60000;51.030;7.024;2023-12-29T01:52:16;10.65;71.85
72128;DHT22;60000;51.030;7.024;2023-12-29T01:54:42;10.65;71.87
72128;DHT22;60000;51.030;7.024;2023-12-29T01:57:09;10.67;71.90
72128;DHT22;60000;51.030;7.024;2023-12-29T01:59:35;10.65;72.07
72128;DHT22;60000;51.030;7.024;2023-12-29T02:02:02;10.67;71.94
72128;DHT22;60000;51.030;7.024;2023-12-29T02:04:28;10.65;72.00
72128;DHT22;60000;51.030;7.024;2023-12-29T02:06:54;10.69;71.98
72128;DHT22;60000;51.030;7.024;2023-12-29T02:09:20;10.69;72.00
72128;DHT22;60000;51.030;7.024;2023-12-29T02:11:46;10.67;72.10
72128;DHT22;60000;51.030;7.024;2023-12-29T02:14:13;10.67;72.18
72128;DHT22;60000;51.030;7.024;2023-12-29T02:22:04;10.71;72.18
72128;DHT22;60000;51.030;7.024;2023-12-29T02:24:30;10.72;72.06
72128;DHT22;60000;51.030;7.024;2023-12-29T02:27:07;10.72;72.16
72128;DHT22;60000;51.030;7.024;2023-12-29T02:29:38;10.69;72.34
72128;DHT22;60000;51.030;7.024;2023-12-29T02:32:07;10.69;72.39
72128;DHT22;60000;51.030;7.024;2023-12-29T02:34:36;10.75;72.28
72128;DHT22;60000;51.030;7.024;2023-12-29T02:37:03;10.75;72.26
72128;DHT22;60000;51.030;7.024;2023-12-29T02:39:29;10.75;72.31
72128;DHT22;60000;51.030;7.024;2023-12-29T02:41:54;10.76;72.39
72128;DHT22;60000;51.030;7.024;2023-12-29T02:44:20;10.78;72.45
72128;DHT22;60000;51.030;7.024;2023-12-29T02:46:45;10.79;72.34
72128;DHT22;60000;51.030;7.024;2023-12-29T02:49:10;10.78;72.41
72128;DHT22;60000;51.030;7.024;2023-12-29T02:51:38;10.92;71.84
72128;DHT22;60000;51.030;7.024;2023-12-29T02:54:04;10.95;71.79
72128;DHT22;60000;51.030;7.024;2023-12-29T02:56:31;10.96;71.86
72128;DHT22;60000;51.030;7.024;2023-12-29T02:58:56;11.02;71.91
72128;DHT22;60000;51.030;7.024;2023-12-29T03:01:21;11.05;72.16
72128;DHT22;60000;51.030;7.024;2023-12-29T03:03:46;11.05;72.04
72128;DHT22;60000;51.030;7.024;2023-12-29T03:06:12;11.06;71.92
72128;DHT22;60000;51.030;7.024;2023-12-29T03:08:37;11.05;72.03
72128;DHT22;60000;51.030;7.024;2023-12-29T03:11:03;11.08;72.15
72128;DHT22;60000;51.030;7.024;2023-12-29T03:13:28;11.05;72.12
72128;DHT22;60000;51.030;7.024;2023-12-29T03:15:53;11.09;72.12
72128;DHT22;60000;51.030;7.024;2023-12-29T03:18:18;11.10;72.04
72128;DHT22;60000;51.030;7.024;2023-12-29T03:20:44;11.10;72.01
72128;DHT22;60000;51.030;7.024;2023-12-29T03:23:09;11.16;71.92
72128;DHT22;60000;51.030;7.024;2023-12-29T03:25:34;11.17;71.95
72128;DHT22;60000;51.030;7.024;2023-12-29T03:28:00;11.12;72.03
72128;DHT22;60000;51.030;7.024;2023-12-29T03:30:25;11.17;72.08
72128;DHT22;60000;51.030;7.024;2023-12-29T03:32:50;11.19;71.94
72128;DHT22;60000;51.030;7.024;2023-12-29T03:35:16;11.19;72.13
72128;DHT22;60000;51.030;7.024;2023-12-29T03:37:42;11.24;71.95
72128;DHT22;60000;51.030;7.024;2023-12-29T03:40:08;11.22;71.99
72128;DHT22;60000;51.030;7.024;2023-12-29T03:42:33;11.24;72.08
72128;DHT22;60000;51.030;7.024;2023-12-29T03:44:58;11.22;72.22
72128;DHT22;60000;51.030;7.024;2023-12-29T03:47:24;11.29;72.10
72128;DHT22;60000;51.030;7.024;2023-12-29T03:49:49;11.29;72.03
72128;DHT22;60000;51.030;7.024;2023-12-29T03:52:14;11.26;72.01
72128;DHT22;60000;51.030;7.024;2023-12-29T03:54:40;11.27;72.16
72128;DHT22;60000;51.030;7.024;2023-12-29T03:57:05;11.26;72.12
72128;DHT22;60000;51.030;7.024;2023-12-29T03:59:30;11.27;72.08
72128;DHT22;60000;51.030;7.024;2023-12-29T04:01:56;11.26;72.21
72128;DHT22;60000;51.030;7.024;2023-12-29T04:04:21;11.30;71.97
72128;DHT22;60000;51.030;7.024;2023-12-29T04:06:46;11.34;71.67
72128;DHT22;60000;51.030;7.024;2023-12-29T04:09:12;11.30;71.80
72128;DHT22;60000;51.030;7.024;2023-12-29T04:11:37;11.30;71.81
72128;DHT22;60000;51.030;7.024;2023-12-29T04:14:02;11.29;71.82
72128;DHT22;60000;51.030;7.024;2023-12-29T04:16:27;11.27;71.83
72128;DHT22;60000;51.030;7.024;2023-12-29T04:18:53;11.30;71.74
72128;DHT22;60000;51.030;7.024;2023-12-29T04:21:18;11.27;71.83
72128;DHT22;60000;51.030;7.024;2023-12-29T04:23:43;11.29;71.92
72128;DHT22;60000;51.030;7.024;2023-12-29T04:26:09;11.27;72.05
72128;DHT22;60000;51.030;7.024;2023-12-29T04:28:34;11.26;72.03
72128;DHT22;60000;51.030;7.024;2023-12-29T04:31:00;11.26;72.06
72128;DHT22;60000;51.030;7.024;2023-12-29T04:33:25;11.26;72.14
72128;DHT22;60000;51.030;7.024;2023-12-29T04:35:51;11.22;72.13
72128;DHT22;60000;51.030;7.024;2023-12-29T04:38:16;11.26;72.04
72128;DHT22;60000;51.030;7.024;2023-12-29T04:40:44;11.24;72.19
72128;DHT22;60000;51.030;7.024;2023-12-29T04:43:09;11.23;72.25
72128;DHT22;60000;51.030;7.024;2023-12-29T04:45:34;11.24;72.42
72128;DHT22;60000;51.030;7.024;2023-12-29T04:48:00;11.29;72.11
72128;DHT22;60000;51.030;7.024;2023-12-29T04:50:25;11.31;72.17
72128;DHT22;60000;51.030;7.024;2023-12-29T04:52:50;11.31;72.19
72128;DHT22;60000;51.030;7.024;2023-12-29T04:55:16;11.30;72.13
72128;DHT22;60000;51.030;7.024;2023-12-29T04:57:41;11.24;72.41
72128;DHT22;60000;51.030;7.024;2023-12-29T05:00:07;11.30;72.56
72128;DHT22;60000;51.030;7.024;2023-12-29T05:02:32;11.30;72.55
72128;DHT22;60000;51.030;7.024;2023-12-29T05:04:57;11.33;72.55
72128;DHT22;60000;51.030;7.024;2023-12-29T05:07:23;11.30;72.59
72128;DHT22;60000;51.030;7.024;2023-12-29T05:09:49;11.27;72.85
72128;DHT22;60000;51.030;7.024;2023-12-29T05:12:14;11.24;72.99
72128;DHT22;60000;51.030;7.024;2023-12-29T05:14:40;11.24;73.03
72128;DHT22;60000;51.030;7.024;2023-12-29T05:17:05;11.27;72.97
72128;DHT22;60000;51.030;7.024;2023-12-29T05:19:31;11.31;72.82
72128;DHT22;60000;51.030;7.024;2023-12-29T05:21:57;11.26;72.89
72128;DHT22;60000;51.030;7.024;2023-12-29T05:24:22;11.23;73.01
72128;DHT22;60000;51.030;7.024;2023-12-29T05:26:47;11.20;73.03
72128;DHT22;60000;51.030;7.024;2023-12-29T05:29:12;11.19;73.16
72128;DHT22;60000;51.030;7.024;2023-12-29T05:31:38;11.19;73.26
72128;DHT22;60000;51.030;7.024;2023-12-29T05:34:03;11.13;73.28
72128;DHT22;60000;51.030;7.024;2023-12-29T05:36:28;11.13;73.25
72128;DHT22;60000;51.030;7.024;2023-12-29T05:38:55;11.12;73.06
72128;DHT22;60000;51.030;7.024;2023-12-29T05:41:21;11.08;73.09
72128;DHT22;60000;51.030;7.024;2023-12-29T05:43:46;11.05;73.05
72128;DHT22;60000;51.030;7.024;2023-12-29T05:46:12;10.99;73.15
72128;DHT22;60000;51.030;7.024;2023-12-29T05:48:37;11.06;72.91
72128;DHT22;60000;51.030;7.024;2023-12-29T05:51:13;11.03;72.95
72128;DHT22;60000;51.030;7.024;2023-12-29T05:53:42;10.99;73.13
72128;DHT22;60000;51.030;7.024;2023-12-29T05:56:07;11.00;73.00
72128;DHT22;60000;51.030;7.024;2023-12-29T05:58:33;10.99;72.93
72128;DHT22;60000;51.030;7.024;2023-12-29T06:00:58;10.95;73.00
72128;DHT22;60000;51.030;7.024;2023-12-29T06:03:25;10.92;73.21
72128;DHT22;60000;51.030;7.024;2023-12-29T06:05:51;10.88;73.34
72128;DHT22;60000;51.030;7.024;2023-12-29T06:08:16;10.88;73.28
72128;DHT22;60000;51.030;7.024;2023-12-29T06:10:42;10.85;73.26
72128;DHT22;60000;51.030;7.024;2023-12-29T06:13:07;10.82;73.44
72128;DHT22;60000;51.030;7.024;2023-12-29T06:15:32;10.83;73.43
72128;DHT22;60000;51.030;7.024;2023-12-29T06:17:58;10.80;73.38
72128;DHT22;60000;51.030;7.024;2023-12-29T06:20:23;10.78;73.55
72128;DHT22;60000;51.030;7.024;2023-12-29T06:22:49;10.72;73.72
72128;DHT22;60000;51.030;7.024;2023-12-29T06:25:14;10.72;73.71
72128;DHT22;60000;51.030;7.024;2023-12-29T06:27:40;10.68;73.82
72128;DHT22;60000;51.030;7.024;2023-12-29T06:30:07;10.73;73.60
72128;DHT22;60000;51.030;7.024;2023-12-29T06:32:32;10.78;73.50
72128;DHT22;60000;51.030;7.024;2023-12-29T06:34:58;10.75;73.43
72128;DHT22;60000;51.030;7.024;2023-12-29T06:37:23;10.69;73.49
72128;DHT22;60000;51.030;7.024;2023-12-29T06:39:48;10.75;73.36
72128;DHT22;60000;51.030;7.024;2023-12-29T06:42:14;10.71;73.33
72128;DHT22;60000;51.030;7.024;2023-12-29T06:44:39;10.71;73.49
72128;DHT22;60000;51.030;7.024;2023-12-29T06:47:04;10.72;73.48
72128;DHT22;60000;51.030;7.024;2023-12-29T06:49:32;10.68;73.51
72128;DHT22;60000;51.030;7.024;2023-12-29T06:51:57;10.68;73.57
72128;DHT22;60000;51.030;7.024;2023-12-29T06:54:23;10.76;73.12
72128;DHT22;60000;51.030;7.024;2023-12-29T06:56:48;10.78;73.12
72128;DHT22;60000;51.030;7.024;2023-12-29T06:59:14;10.75;73.20
72128;DHT22;60000;51.030;7.024;2023-12-29T07:01:39;10.75;73.27
72128;DHT22;60000;51.030;7.024;2023-12-29T07:04:06;10.75;73.15
72128;DHT22;60000;51.030;7.024;2023-12-29T07:06:31;10.76;73.13
72128;DHT22;60000;51.030;7.024;2023-12-29T07:08:56;10.75;73.15
72128;DHT22;60000;51.030;7.024;2023-12-29T07:11:22;10.72;73.16
72128;DHT22;60000;51.030;7.024;2023-12-29T07:13:47;10.71;73.24
72128;DHT22;60000;51.030;7.024;2023-12-29T07:16:12;10.72;73.11
72128;DHT22;60000;51.030;7.024;2023-12-29T07:18:38;10.78;72.86
72128;DHT22;60000;51.030;7.024;2023-12-29T07:21:03;10.80;72.75
72128;DHT22;60000;51.030;7.024;2023-12-29T07:23:29;10.79;72.84
72128;DHT22;60000;51.030;7.024;2023-12-29T07:25:54;10.82;72.69
72128;DHT22;60000;51.030;7.024;2023-12-29T07:28:19;10.86;72.60
72128;DHT22;60000;51.030;7.024;2023-12-29T07:30:45;10.85;72.61
72128;DHT22;60000;51.030;7.024;2023-12-29T07:33:10;10.83;72.59
72128;DHT22;60000;51.030;7.024;2023-12-29T07:35:36;10.89;72.54
72128;DHT22;60000;51.030;7.024;2023-12-29T07:38:01;10.85;72.59
72128;DHT22;60000;51.030;7.024;2023-12-29T07:40:26;10.89;72.67
72128;DHT22;60000;51.030;7.024;2023-12-29T07:42:52;10.88;72.69
72128;DHT22;60000;51.030;7.024;2023-12-29T07:45:17;10.86;72.69
72128;DHT22;60000;51.030;7.024;2023-12-29T07:47:43;10.93;72.41
72128;DHT22;60000;51.030;7.024;2023-12-29T07:50:08;10.96;72.45
72128;DHT22;60000;51.030;7.024;2023-12-29T07:52:34;10.93;72.65
72128;DHT22;60000;51.030;7.024;2023-12-29T07:54:59;10.93;72.67
72128;DHT22;60000;51.030;7.024;2023-12-29T07:57:24;10.98;72.57
72128;DHT22;60000;51.030;7.024;2023-12-29T07:59:50;10.99;72.71
72128;DHT22;60000;51.030;7.024;2023-12-29T08:02:15;10.99;73.68
72128;DHT22;60000;51.030;7.024;2023-12-29T08:04:41;10.93;74.62
72128;DHT22;60000;51.030;7.024;2023-12-29T08:07:07;10.85;75.50
72128;DHT22;60000;51.030;7.024;2023-12-29T08:09:32;10.75;76.49
72128;DHT22;60000;51.030;7.024;2023-12-29T08:11:57;10.65;77.30
72128;DHT22;60000;51.030;7.024;2023-12-29T08:14:23;10.58;78.68
72128;DHT22;60000;51.030;7.024;2023-12-29T08:16:48;10.48;79.45
72128;DHT22;60000;51.030;7.024;2023-12-29T08:19:13;10.40;80.59
72128;DHT22;60000;51.030;7.024;2023-12-29T08:21:40;10.30;80.77
72128;DHT22;60000;51.030;7.024;2023-12-29T08:24:05;10.21;81.54
72128;DHT22;60000;51.030;7.024;2023-12-29T08:26:31;10.13;81.99
72128;DHT22;60000;51.030;7.024;2023-12-29T08:28:56;10.07;82.75
72128;DHT22;60000;51.030;7.024;2023-12-29T08:31:21;10.03;82.95
72128;DHT22;60000;51.030;7.024;2023-12-29T08:33:48;9.96;83.42
72128;DHT22;60000;51.030;7.024;2023-12-29T08:36:13;9.93;84.09
72128;DHT22;60000;51.030;7.024;2023-12-29T08:38:39;9.87;84.36
72128;DHT22;60000;51.030;7.024;2023-12-29T08:41:05;9.85;84.82
72128;DHT22;60000;51.030;7.024;2023-12-29T08:43:30;9.80;85.22
72128;DHT22;60000;51.030;7.024;2023-12-29T08:45:56;9.79;85.50
72128;DHT22;60000;51.030;7.024;2023-12-29T08:48:22;9.78;85.75
72128;DHT22;60000;51.030;7.024;2023-12-29T08:50:48;9.75;86.00
72128;DHT22;60000;51.030;7.024;2023-12-29T08:53:13;9.73;86.24
72128;DHT22;60000;51.030;7.024;2023-12-29T08:55:39;9.70;86.55
72128;DHT22;60000;51.030;7.024;2023-12-29T08:58:04;9.69;86.74
72128;DHT22;60000;51.030;7.024;2023-12-29T09:00:30;9.66;86.98
72128;DHT22;60000;51.030;7.024;2023-12-29T09:02:56;9.68;87.18
72128;DHT22;60000;51.030;7.024;2023-12-29T09:05:21;9.65;87.33
72128;DHT22;60000;51.030;7.024;2023-12-29T09:07:46;9.63;87.66
72128;DHT22;60000;51.030;7.024;2023-12-29T09:10:12;9.62;87.78
72128;DHT22;60000;51.030;7.024;2023-12-29T09:12:38;9.60;88.00
72128;DHT22;60000;51.030;7.024;2023-12-29T09:15:04;9.60;88.20
72128;DHT22;60000;51.030;7.024;2023-12-29T09:17:30;9.60;88.44
72128;DHT22;60000;51.030;7.024;2023-12-29T09:19:55;9.59;88.63
72128;DHT22;60000;51.030;7.024;2023-12-29T09:22:21;9.59;88.81
72128;DHT22;60000;51.030;7.024;2023-12-29T09:24:46;9.58;88.95
72128;DHT22;60000;51.030;7.024;2023-12-29T09:27:11;9.58;89.14
72128;DHT22;60000;51.030;7.024;2023-12-29T09:29:37;9.58;89.30
72128;DHT22;60000;51.030;7.024;2023-12-29T09:32:03;9.59;89.45
72128;DHT22;60000;51.030;7.024;2023-12-29T09:34:28;9.58;89.57
72128;DHT22;60000;51.030;7.024;2023-12-29T09:36:53;9.58;89.68
72128;DHT22;60000;51.030;7.024;2023-12-29T09:39:19;9.58;89.83
72128;DHT22;60000;51.030;7.024;2023-12-29T09:41:46;9.58;89.93
72128;DHT22;60000;51.030;7.024;2023-12-29T09:44:14;9.60;90.12
72128;DHT22;60000;51.030;7.024;2023-12-29T09:46:41;9.63;90.27
72128;DHT22;60000;51.030;7.024;2023-12-29T09:49:08;9.62;90.31
72128;DHT22;60000;51.030;7.024;2023-12-29T09:51:34;9.63;90.44
72128;DHT22;60000;51.030;7.024;2023-12-29T09:54:01;9.68;90.53
72128;DHT22;60000;51.030;7.024;2023-12-29T09:56:27;9.69;90.57
72128;DHT22;60000;51.030;7.024;2023-12-29T09:58:54;9.70;90.62
72128;DHT22;60000;51.030;7.024;2023-12-29T10:01:21;9.70;90.51
72128;DHT22;60000;51.030;7.024;2023-12-29T10:03:47;9.75;90.49
72128;DHT22;60000;51.030;7.024;2023-12-29T10:06:19;9.76;90.44
72128;DHT22;60000;51.030;7.024;2023-12-29T10:08:47;9.79;90.35
72128;DHT22;60000;51.030;7.024;2023-12-29T10:11:20;9.86;90.32
72128;DHT22;60000;51.030;7.024;2023-12-29T10:13:50;9.86;90.14
72128;DHT22;60000;51.030;7.024;2023-12-29T10:16:33;9.89;89.89
72128;DHT22;60000;51.030;7.024;2023-12-29T10:20:02;9.94;89.67
72128;DHT22;60000;51.030;7.024;2023-12-29T10:22:26;9.99;89.40
72128;DHT22;60000;51.030;7.024;2023-12-29T10:24:55;10.01;89.27
72128;DHT22;60000;51.030;7.024;2023-12-29T10:27:20;10.06;89.06
72128;DHT22;60000;51.030;7.024;2023-12-29T10:29:46;10.13;88.68
72128;DHT22;60000;51.030;7.024;2023-12-29T10:32:11;10.17;88.18
72128;DHT22;60000;51.030;7.024;2023-12-29T10:34:36;10.21;87.85
72128;DHT22;60000;51.030;7.024;2023-12-29T10:37:02;10.34;86.24
72128;DHT22;60000;51.030;7.024;2023-12-29T10:39:32;10.42;86.08
72128;DHT22;60000;51.030;7.024;2023-12-29T10:42:06;10.51;85.83
72128;DHT22;60000;51.030;7.024;2023-12-29T10:44:36;10.54;85.49
72128;DHT22;60000;51.030;7.024;2023-12-29T10:47:09;10.59;85.03
72128;DHT22;60000;51.030;7.024;2023-12-29T10:49:35;10.65;85.01
72128;DHT22;60000;51.030;7.024;2023-12-29T10:52:10;10.68;84.35
72128;DHT22;60000;51.030;7.024;2023-12-29T10:54:36;10.79;83.92
72128;DHT22;60000;51.030;7.024;2023-12-29T10:57:02;10.89;83.72
72128;DHT22;60000;51.030;7.024;2023-12-29T10:59:28;11.00;82.79
72128;DHT22;60000;51.030;7.024;2023-12-29T11:01:54;11.06;83.07
72128;DHT22;60000;51.030;7.024;2023-12-29T11:04:22;11.19;81.74
72128;DHT22;60000;51.030;7.024;2023-12-29T11:10:09;11.22;81.28
72128;DHT22;60000;51.030;7.024;2023-12-29T11:12:36;11.30;81.19
72128;DHT22;60000;51.030;7.024;2023-12-29T11:15:04;11.31;81.28
72128;DHT22;60000;51.030;7.024;2023-12-29T11:17:31;11.33;81.10
72128;DHT22;60000;51.030;7.024;2023-12-29T11:19:58;11.43;80.73
72128;DHT22;60000;51.030;7.024;2023-12-29T11:22:27;11.54;80.30
72128;DHT22;60000;51.030;7.024;2023-12-29T11:24:53;11.51;80.02
72128;DHT22;60000;51.030;7.024;2023-12-29T11:27:18;11.51;80.21
72128;DHT22;60000;51.030;7.024;2023-12-29T11:29:45;11.54;79.75
72128;DHT22;60000;51.030;7.024;2023-12-29T11:32:26;11.61;79.37
72128;DHT22;60000;51.030;7.024;2023-12-29T11:34:56;11.63;79.43
72128;DHT22;60000;51.030;7.024;2023-12-29T11:37:44;11.60;79.07
72128;DHT22;60000;51.030;7.024;2023-12-29T11:40:22;11.67;78.72
72128;DHT22;60000;51.030;7.024;2023-12-29T11:42:52;11.66;78.73
72128;DHT22;60000;51.030;7.024;2023-12-29T11:45:26;11.67;78.92
72128;DHT22;60000;51.030;7.024;2023-12-29T11:47:53;11.68;78.48
72128;DHT22;60000;51.030;7.024;2023-12-29T11:50:29;11.67;78.68
72128;DHT22;60000;51.030;7.024;2023-12-29T11:52:55;11.68;78.05
72128;DHT22;60000;51.030;7.024;2023-12-29T11:55:21;11.67;78.21
72128;DHT22;60000;51.030;7.024;2023-12-29T11:57:46;11.73;78.02
72128;DHT22;60000;51.030;7.024;2023-12-29T12:00:12;11.74;77.58
72128;DHT22;60000;51.030;7.024;2023-12-29T12:02:38;11.75;77.93
72128;DHT22;60000;51.030;7.024;2023-12-29T12:05:04;11.77;77.36
72128;DHT22;60000;51.030;7.024;2023-12-29T12:12:55;11.81;76.91
72128;DHT22;60000;51.030;7.024;2023-12-29T12:17:54;11.85;76.88
72128;DHT22;60000;51.030;7.024;2023-12-29T12:20:19;11.88;77.16
72128;DHT22;60000;51.030;7.024;2023-12-29T12:22:49;11.91;76.72
72128;DHT22;60000;51.030;7.024;2023-12-29T12:25:20;11.91;76.57
72128;DHT22;60000;51.030;7.024;2023-12-29T12:27:46;11.88;77.09
72128;DHT22;60000;51.030;7.024;2023-12-29T12:30:18;11.87;76.79
72128;DHT22;60000;51.030;7.024;2023-12-29T12:32:44;11.87;77.04
72128;DHT22;60000;51.030;7.024;2023-12-29T12:35:15;11.95;77.36
72128;DHT22;60000;51.030;7.024;2023-12-29T12:37:43;11.99;76.77
72128;DHT22;60000;51.030;7.024;2023-12-29T12:40:09;12.04;76.75
72128;DHT22;60000;51.030;7.024;2023-12-29T12:42:41;12.04;76.50
72128;DHT22;60000;51.030;7.024;2023-12-29T12:45:11;12.06;76.37
72128;DHT22;60000;51.030;7.024;2023-12-29T12:47:51;12.06;76.19
72128;DHT22;60000;51.030;7.024;2023-12-29T12:50:16;12.02;76.24
72128;DHT22;60000;51.030;7.024;2023-12-29T12:52:42;12.08;76.30
72128;DHT22;60000;51.030;7.024;2023-12-29T12:55:08;12.05;76.18
72128;DHT22;60000;51.030;7.024;2023-12-29T12:57:35;12.04;76.45
72128;DHT22;60000;51.030;7.024;2023-12-29T13:00:02;12.05;76.10
72128;DHT22;60000;51.030;7.024;2023-12-29T13:02:28;12.05;75.95
72128;DHT22;60000;51.030;7.024;2023-12-29T13:04:55;12.02;76.26
72128;DHT22;60000;51.030;7.024;2023-12-29T13:07:21;12.05;76.39
72128;DHT22;60000;51.030;7.024;2023-12-29T13:09:48;12.06;75.88
72128;DHT22;60000;51.030;7.024;2023-12-29T13:12:17;12.06;75.94
72128;DHT22;60000;51.030;7.024;2023-12-29T13:14:43;12.04;75.89
72128;DHT22;60000;51.030;7.024;2023-12-29T13:17:10;12.02;75.93
72128;DHT22;60000;51.030;7.024;2023-12-29T13:19:37;11.99;76.04
72128;DHT22;60000;51.030;7.024;2023-12-29T13:22:06;11.99;76.07
72128;DHT22;60000;51.030;7.024;2023-12-29T13:24:33;12.01;76.18
72128;DHT22;60000;51.030;7.024;2023-12-29T13:27:04;11.97;76.24
72128;DHT22;60000;51.030;7.024;2023-12-29T13:29:31;11.91;76.45
72128;DHT22;60000;51.030;7.024;2023-12-29T13:32:17;11.97;76.08
72128;DHT22;60000;51.030;7.024;2023-12-29T13:37:47;11.89;76.48
72128;DHT22;60000;51.030;7.024;2023-12-29T13:40:24;11.87;76.59
72128;DHT22;60000;51.030;7.024;2023-12-29T13:42:55;11.87;76.52
72128;DHT22;60000;51.030;7.024;2023-12-29T13:45:22;11.87;76.09
72128;DHT22;60000;51.030;7.024;2023-12-29T13:47:48;11.87;76.22
72128;DHT22;60000;51.030;7.024;2023-12-29T13:50:14;11.84;76.26
72128;DHT22;60000;51.030;7.024;2023-12-29T13:52:40;11.89;75.85
72128;DHT22;60000;51.030;7.024;2023-12-29T13:55:05;11.88;76.10
72128;DHT22;60000;51.030;7.024;2023-12-29T13:57:35;11.89;75.77
72128;DHT22;60000;51.030;7.024;2023-12-29T14:02:57;11.91;75.62
72128;DHT22;60000;51.030;7.024;2023-12-29T14:05:35;11.88;76.09
72128;DHT22;60000;51.030;7.024;2023-12-29T14:10:38;11.84;76.20
72128;DHT22;60000;51.030;7.024;2023-12-29T14:13:14;11.79;76.36
72128;DHT22;60000;51.030;7.024;2023-12-29T14:15:41;11.79;76.58
72128;DHT22;60000;51.030;7.024;2023-12-29T14:21:29;11.67;77.79
72128;DHT22;60000;51.030;7.024;2023-12-29T14:24:16;11.56;78.53
72128;DHT22;60000;51.030;7.024;2023-12-29T14:26:53;11.44;78.75
72128;DHT22;60000;51.030;7.024;2023-12-29T14:29:19;11.34;80.12
72128;DHT22;60000;51.030;7.024;2023-12-29T14:31:46;11.29;80.70
72128;DHT22;60000;51.030;7.024;2023-12-29T14:34:13;11.23;81.51
72128;DHT22;60000;51.030;7.024;2023-12-29T14:36:42;11.09;81.86
72128;DHT22;60000;51.030;7.024;2023-12-29T14:39:08;11.00;83.05
72128;DHT22;60000;51.030;7.024;2023-12-29T14:41:35;10.91;83.77
72128;DHT22;60000;51.030;7.024;2023-12-29T14:44:00;10.88;83.92
72128;DHT22;60000;51.030;7.024;2023-12-29T14:46:26;10.85;83.93
72128;DHT22;60000;51.030;7.024;2023-12-29T14:48:52;10.79;84.22
72128;DHT22;60000;51.030;7.024;2023-12-29T14:51:18;10.76;84.49
72128;DHT22;60000;51.030;7.024;2023-12-29T14:53:47;10.73;84.82
72128;DHT22;60000;51.030;7.024;2023-12-29T14:56:14;10.71;85.08
72128;DHT22;60000;51.030;7.024;2023-12-29T14:58:39;10.65;85.36
72128;DHT22;60000;51.030;7.024;2023-12-29T15:01:05;10.65;85.28
72128;DHT22;60000;51.030;7.024;2023-12-29T15:03:32;10.62;85.36
72128;DHT22;60000;51.030;7.024;2023-12-29T15:05:58;10.68;85.37
72128;DHT22;60000;51.030;7.024;2023-12-29T15:08:23;10.71;85.28
72128;DHT22;60000;51.030;7.024;2023-12-29T15:10:49;10.68;85.34
72128;DHT22;60000;51.030;7.024;2023-12-29T15:13:14;10.65;85.34
72128;DHT22;60000;51.030;7.024;2023-12-29T15:15:39;10.65;85.28
72128;DHT22;60000;51.030;7.024;2023-12-29T15:18:05;10.67;84.76
72128;DHT22;60000;51.030;7.024;2023-12-29T15:20:30;10.68;84.70
72128;DHT22;60000;51.030;7.024;2023-12-29T15:22:56;10.69;84.34
72128;DHT22;60000;51.030;7.024;2023-12-29T15:25:21;10.73;84.35
72128;DHT22;60000;51.030;7.024;2023-12-29T15:27:51;10.73;83.92
72128;DHT22;60000;51.030;7.024;2023-12-29T15:30:16;10.79;83.69
72128;DHT22;60000;51.030;7.024;2023-12-29T15:32:42;10.86;82.79
72128;DHT22;60000;51.030;7.024;2023-12-29T15:35:07;10.88;82.65
72128;DHT22;60000;51.030;7.024;2023-12-29T15:37:33;10.92;82.35
72128;DHT22;60000;51.030;7.024;2023-12-29T15:39:58;10.91;82.15
72128;DHT22;60000;51.030;7.024;2023-12-29T15:42:25;10.98;81.37
72128;DHT22;60000;51.030;7.024;2023-12-29T15:44:50;11.02;81.36
72128;DHT22;60000;51.030;7.024;2023-12-29T15:47:16;11.05;81.43
72128;DHT22;60000;51.030;7.024;2023-12-29T15:49:41;11.08;81.50
72128;DHT22;60000;51.030;7.024;2023-12-29T15:52:06;11.08;81.69
72128;DHT22;60000;51.030;7.024;2023-12-29T15:54:32;11.06;81.81
72128;DHT22;60000;51.030;7.024;2023-12-29T15:56:58;11.02;82.28